sensor_id;sensor_type;location;lat;lon;timestamp;pressure;altitude;pressure_sealevel;temperature;humidity
11808;BME280;5961;42.640;23.380;2023-01-31T00:01:25;93508.91;;;-0.21;89.07
11808;BME280;5961;42.640;23.380;2023-01-31T00:03:53;93515.88;;;-0.17;88.82
11808;BME280;5961;42.640;23.380;2023-01-31T00:06:24;93511.66;;;-0.36;88.64
11808;BME280;5961;42.640;23.380;2023-01-31T00:08:52;93514.66;;;-0.24;88.83
11808;BME280;5961;42.640;23.380;2023-01-31T00:11:23;93528.88;;;-0.12;89.14
11808;BME280;5961;42.640;23.380;2023-01-31T00:13:51;93509.44;;;-0.24;89.04
11808;BME280;5961;42.640;23.380;2023-01-31T00:16:20;93528.31;;;-0.09;88.55
11808;BME280;5961;42.640;23.380;2023-01-31T00:18:48;93528.44;;;-0.19;88.36
11808;BME280;5961;42.640;23.380;2023-01-31T00:21:18;93522.34;;;-0.09;88.91
11808;BME280;5961;42.640;23.380;2023-01-31T00:23:46;93514.50;;;-0.09;88.99
11808;BME280;5961;42.640;23.380;2023-01-31T00:26:15;93472.34;;;-0.21;87.95
11808;BME280;5961;42.640;23.380;2023-01-31T00:28:43;93502.88;;;0.02;87.52
11808;BME280;5961;42.640;23.380;2023-01-31T00:31:11;93515.63;;;0.04;87.15
11808;BME280;5961;42.640;23.380;2023-01-31T00:33:41;93500.81;;;-0.01;87.41
11808;BME280;5961;42.640;23.380;2023-01-31T00:36:11;93469.44;;;-0.20;86.67
11808;BME280;5961;42.640;23.380;2023-01-31T00:38:38;93514.84;;;0.03;87.10
11808;BME280;5961;42.640;23.380;2023-01-31T00:41:06;93526.88;;;0.04;87.94
11808;BME280;5961;42.640;23.380;2023-01-31T00:43:33;93535.19;;;0.06;87.78
11808;BME280;5961;42.640;23.380;2023-01-31T00:46:00;93527.59;;;0.10;87.38
11808;BME280;5961;42.640;23.380;2023-01-31T00:48:27;93531.47;;;0.12;86.87
11808;BME280;5961;42.640;23.380;2023-01-31T00:50:56;93511.66;;;0.11;87.26
11808;BME280;5961;42.640;23.380;2023-01-31T00:53:23;93529.31;;;0.19;87.06
11808;BME280;5961;42.640;23.380;2023-01-31T00:55:50;93533.97;;;0.22;86.87
11808;BME280;5961;42.640;23.380;2023-01-31T00:58:17;93506.09;;;0.18;85.92
11808;BME280;5961;42.640;23.380;2023-01-31T01:00:44;93512.25;;;0.27;86.00
11808;BME280;5961;42.640;23.380;2023-01-31T01:03:11;93508.84;;;0.26;86.13
11808;BME280;5961;42.640;23.380;2023-01-31T01:05:38;93496.59;;;0.22;85.63
11808;BME280;5961;42.640;23.380;2023-01-31T01:08:07;93510.94;;;0.24;86.10
11808;BME280;5961;42.640;23.380;2023-01-31T01:10:34;93515.69;;;0.22;86.01
11808;BME280;5961;42.640;23.380;2023-01-31T01:13:01;93525.56;;;0.25;85.87
11808;BME280;5961;42.640;23.380;2023-01-31T01:15:30;93493.47;;;0.01;86.48
11808;BME280;5961;42.640;23.380;2023-01-31T01:17:56;93519.84;;;0.23;86.23
11808;BME280;5961;42.640;23.380;2023-01-31T01:20:23;93477.78;;;0.01;86.10
11808;BME280;5961;42.640;23.380;2023-01-31T01:22:50;93530.72;;;0.30;85.90
11808;BME280;5961;42.640;23.380;2023-01-31T01:25:18;93516.34;;;0.33;85.62
11808;BME280;5961;42.640;23.380;2023-01-31T01:27:45;93512.88;;;0.37;85.42
11808;BME280;5961;42.640;23.380;2023-01-31T01:30:13;93515.59;;;0.27;85.10
11808;BME280;5961;42.640;23.380;2023-01-31T01:32:40;93503.97;;;0.20;81.69
11808;BME280;5961;42.640;23.380;2023-01-31T01:35:07;93479.44;;;-0.03;81.29
11808;BME280;5961;42.640;23.380;2023-01-31T01:37:34;93526.50;;;0.34;76.18
11808;BME280;5961;42.640;23.380;2023-01-31T01:40:01;93474.50;;;0.14;77.53
11808;BME280;5961;42.640;23.380;2023-01-31T01:42:33;93508.56;;;0.46;75.00
11808;BME280;5961;42.640;23.380;2023-01-31T01:45:01;93511.09;;;0.51;73.76
11808;BME280;5961;42.640;23.380;2023-01-31T01:47:35;93511.53;;;0.59;72.35
11808;BME280;5961;42.640;23.380;2023-01-31T01:50:08;93499.47;;;0.63;70.88
11808;BME280;5961;42.640;23.380;2023-01-31T01:52:38;93506.19;;;0.69;69.59
11808;BME280;5961;42.640;23.380;2023-01-31T01:55:15;93496.69;;;0.73;68.06
11808;BME280;5961;42.640;23.380;2023-01-31T01:57:50;93509.53;;;0.88;66.46
11808;BME280;5961;42.640;23.380;2023-01-31T02:00:20;93507.84;;;0.97;64.54
11808;BME280;5961;42.640;23.380;2023-01-31T02:02:49;93520.28;;;1.05;65.38
11808;BME280;5961;42.640;23.380;2023-01-31T02:05:20;93462.44;;;0.74;64.62
11808;BME280;5961;42.640;23.380;2023-01-31T02:07:47;93505.97;;;1.16;64.50
11808;BME280;5961;42.640;23.380;2023-01-31T02:10:18;93484.78;;;1.18;64.30
11808;BME280;5961;42.640;23.380;2023-01-31T02:12:48;93478.91;;;1.07;64.05
11808;BME280;5961;42.640;23.380;2023-01-31T02:15:15;93478.00;;;0.98;63.90
11808;BME280;5961;42.640;23.380;2023-01-31T02:17:42;93512.81;;;1.31;64.06
11808;BME280;5961;42.640;23.380;2023-01-31T02:20:28;93528.88;;;1.24;62.67
11808;BME280;5961;42.640;23.380;2023-01-31T02:23:18;93522.69;;;1.34;62.42
11808;BME280;5961;42.640;23.380;2023-01-31T02:26:18;93517.25;;;1.30;62.60
11808;BME280;5961;42.640;23.380;2023-01-31T02:29:19;93512.59;;;1.27;62.49
11808;BME280;5961;42.640;23.380;2023-01-31T02:32:26;93545.44;;;1.20;62.41
11808;BME280;5961;42.640;23.380;2023-01-31T02:35:04;93506.88;;;1.25;62.25
11808;BME280;5961;42.640;23.380;2023-01-31T02:37:39;93513.09;;;1.29;62.02
11808;BME280;5961;42.640;23.380;2023-01-31T02:40:14;93508.72;;;1.25;62.31
11808;BME280;5961;42.640;23.380;2023-01-31T02:42:50;93511.53;;;1.28;62.25
11808;BME280;5961;42.640;23.380;2023-01-31T02:45:28;93513.38;;;1.28;62.17
11808;BME280;5961;42.640;23.380;2023-01-31T02:48:06;93528.34;;;1.08;61.31
11808;BME280;5961;42.640;23.380;2023-01-31T02:50:41;93524.63;;;1.28;62.56
11808;BME280;5961;42.640;23.380;2023-01-31T02:53:13;93503.84;;;1.18;62.47
11808;BME280;5961;42.640;23.380;2023-01-31T02:55:47;93521.88;;;1.20;63.40
11808;BME280;5961;42.640;23.380;2023-01-31T02:58:36;93535.66;;;1.25;64.25
11808;BME280;5961;42.640;23.380;2023-01-31T03:01:04;93540.13;;;1.25;64.72
11808;BME280;5961;42.640;23.380;2023-01-31T03:03:35;93538.75;;;1.27;65.42
11808;BME280;5961;42.640;23.380;2023-01-31T03:09:10;93552.72;;;1.23;66.06
11808;BME280;5961;42.640;23.380;2023-01-31T03:11:54;93551.94;;;1.22;66.93
11808;BME280;5961;42.640;23.380;2023-01-31T03:14:29;93548.75;;;1.25;67.03
11808;BME280;5961;42.640;23.380;2023-01-31T03:17:02;93563.19;;;1.23;67.95
11808;BME280;5961;42.640;23.380;2023-01-31T03:19:57;93605.34;;;1.21;68.92
11808;BME280;5961;42.640;23.380;2023-01-31T03:22:29;93589.94;;;1.20;69.99
11808;BME280;5961;42.640;23.380;2023-01-31T03:24:57;93570.56;;;1.21;70.12
11808;BME280;5961;42.640;23.380;2023-01-31T03:27:27;93583.13;;;1.19;70.73
11808;BME280;5961;42.640;23.380;2023-01-31T03:29:58;93569.00;;;1.20;71.11
11808;BME280;5961;42.640;23.380;2023-01-31T03:32:30;93410.25;;;0.13;71.30
11808;BME280;5961;42.640;23.380;2023-01-31T03:35:00;93593.81;;;1.22;72.68
11808;BME280;5961;42.640;23.380;2023-01-31T03:37:33;93595.97;;;1.20;73.46
11808;BME280;5961;42.640;23.380;2023-01-31T03:40:04;93593.97;;;1.12;74.51
11808;BME280;5961;42.640;23.380;2023-01-31T03:42:43;93580.38;;;1.10;74.82
11808;BME280;5961;42.640;23.380;2023-01-31T03:45:16;93625.34;;;1.12;76.12
11808;BME280;5961;42.640;23.380;2023-01-31T03:47:46;93612.78;;;1.14;76.66
11808;BME280;5961;42.640;23.380;2023-01-31T03:50:19;93626.44;;;1.11;77.46
11808;BME280;5961;42.640;23.380;2023-01-31T03:52:51;93636.13;;;1.10;77.71
11808;BME280;5961;42.640;23.380;2023-01-31T03:55:26;93596.78;;;0.97;78.52
11808;BME280;5961;42.640;23.380;2023-01-31T03:57:58;93613.00;;;0.99;79.55
11808;BME280;5961;42.640;23.380;2023-01-31T04:00:26;93607.25;;;0.97;80.45
11808;BME280;5961;42.640;23.380;2023-01-31T04:02:58;93603.16;;;0.91;81.07
11808;BME280;5961;42.640;23.380;2023-01-31T04:05:31;93578.13;;;0.66;81.95
11808;BME280;5961;42.640;23.380;2023-01-31T04:07:59;93608.13;;;0.92;82.24
11808;BME280;5961;42.640;23.380;2023-01-31T04:10:26;93637.72;;;0.88;82.85
11808;BME280;5961;42.640;23.380;2023-01-31T04:12:53;93651.59;;;0.88;83.27
11808;BME280;5961;42.640;23.380;2023-01-31T04:15:19;93603.78;;;0.83;83.83
11808;BME280;5961;42.640;23.380;2023-01-31T04:17:46;93624.78;;;0.78;84.26
11808;BME280;5961;42.640;23.380;2023-01-31T04:20:13;93618.78;;;0.77;85.06
11808;BME280;5961;42.640;23.380;2023-01-31T04:22:41;93619.13;;;0.71;85.09
11808;BME280;5961;42.640;23.380;2023-01-31T04:25:08;93654.78;;;0.62;85.49
11808;BME280;5961;42.640;23.380;2023-01-31T04:27:35;93582.88;;;0.40;85.82
11808;BME280;5961;42.640;23.380;2023-01-31T04:30:04;93641.09;;;0.70;86.34
11808;BME280;5961;42.640;23.380;2023-01-31T04:32:31;93646.47;;;0.60;87.26
11808;BME280;5961;42.640;23.380;2023-01-31T04:34:58;93645.94;;;0.57;87.78
11808;BME280;5961;42.640;23.380;2023-01-31T04:37:24;93681.00;;;0.57;88.11
11808;BME280;5961;42.640;23.380;2023-01-31T04:39:52;93616.75;;;0.50;88.64
11808;BME280;5961;42.640;23.380;2023-01-31T04:42:19;93611.78;;;0.49;89.05
11808;BME280;5961;42.640;23.380;2023-01-31T04:44:46;93641.81;;;0.51;89.30
11808;BME280;5961;42.640;23.380;2023-01-31T04:47:13;93653.94;;;0.42;89.73
11808;BME280;5961;42.640;23.380;2023-01-31T04:49:39;93639.59;;;0.40;89.99
11808;BME280;5961;42.640;23.380;2023-01-31T04:52:06;93631.22;;;0.19;89.77
11808;BME280;5961;42.640;23.380;2023-01-31T04:54:34;93669.88;;;0.46;89.92
11808;BME280;5961;42.640;23.380;2023-01-31T04:57:03;93638.78;;;0.44;90.55
11808;BME280;5961;42.640;23.380;2023-01-31T04:59:30;93659.78;;;0.34;91.18
11808;BME280;5961;42.640;23.380;2023-01-31T05:01:57;93604.34;;;-0.10;91.20
11808;BME280;5961;42.640;23.380;2023-01-31T05:04:24;93670.19;;;0.39;91.30
11808;BME280;5961;42.640;23.380;2023-01-31T05:06:51;93659.72;;;0.39;91.13
11808;BME280;5961;42.640;23.380;2023-01-31T05:09:18;93654.47;;;0.44;91.35
11808;BME280;5961;42.640;23.380;2023-01-31T05:11:45;93630.44;;;0.42;90.74
11808;BME280;5961;42.640;23.380;2023-01-31T05:14:13;93653.91;;;0.47;90.93
11808;BME280;5961;42.640;23.380;2023-01-31T05:16:40;93643.00;;;0.40;90.39
11808;BME280;5961;42.640;23.380;2023-01-31T05:19:08;93644.00;;;0.44;90.97
11808;BME280;5961;42.640;23.380;2023-01-31T05:21:35;93646.41;;;0.41;90.73
11808;BME280;5961;42.640;23.380;2023-01-31T05:24:19;93664.84;;;0.49;90.49
11808;BME280;5961;42.640;23.380;2023-01-31T05:26:46;93655.19;;;0.50;90.48
11808;BME280;5961;42.640;23.380;2023-01-31T05:29:16;93668.81;;;0.47;90.03
11808;BME280;5961;42.640;23.380;2023-01-31T05:31:43;93698.78;;;0.54;89.73
11808;BME280;5961;42.640;23.380;2023-01-31T05:34:10;93681.50;;;0.59;89.74
11808;BME280;5961;42.640;23.380;2023-01-31T05:36:40;93644.50;;;0.46;89.78
11808;BME280;5961;42.640;23.380;2023-01-31T05:39:07;93670.59;;;0.51;89.55
11808;BME280;5961;42.640;23.380;2023-01-31T05:41:33;93660.84;;;0.33;89.89
11808;BME280;5961;42.640;23.380;2023-01-31T05:44:00;93617.19;;;0.10;90.09
11808;BME280;5961;42.640;23.380;2023-01-31T05:46:28;93650.38;;;0.33;89.95
11808;BME280;5961;42.640;23.380;2023-01-31T05:48:55;93698.03;;;0.54;89.61
11808;BME280;5961;42.640;23.380;2023-01-31T05:51:22;93662.69;;;0.57;89.39
11808;BME280;5961;42.640;23.380;2023-01-31T05:53:48;93682.53;;;0.57;89.34
11808;BME280;5961;42.640;23.380;2023-01-31T05:56:16;93687.34;;;0.50;89.54
11808;BME280;5961;42.640;23.380;2023-01-31T05:58:43;93659.72;;;0.39;89.51
11808;BME280;5961;42.640;23.380;2023-01-31T06:01:14;93703.19;;;0.59;89.51
11808;BME280;5961;42.640;23.380;2023-01-31T06:03:42;93679.03;;;0.43;89.60
11808;BME280;5961;42.640;23.380;2023-01-31T06:06:09;93685.16;;;0.57;89.50
11808;BME280;5961;42.640;23.380;2023-01-31T06:08:36;93667.31;;;0.65;89.66
11808;BME280;5961;42.640;23.380;2023-01-31T06:11:03;93693.44;;;0.65;89.82
11808;BME280;5961;42.640;23.380;2023-01-31T06:13:30;93698.22;;;0.57;90.08
11808;BME280;5961;42.640;23.380;2023-01-31T06:15:57;93656.22;;;0.25;89.93
11808;BME280;5961;42.640;23.380;2023-01-31T06:18:24;93693.44;;;0.65;90.22
11808;BME280;5961;42.640;23.380;2023-01-31T06:20:52;93676.94;;;0.69;90.42
11808;BME280;5961;42.640;23.380;2023-01-31T06:23:19;93703.59;;;0.71;90.31
11808;BME280;5961;42.640;23.380;2023-01-31T06:25:48;93722.72;;;0.67;90.44
11808;BME280;5961;42.640;23.380;2023-01-31T06:28:14;93714.38;;;0.65;90.47
11808;BME280;5961;42.640;23.380;2023-01-31T06:30:41;93711.09;;;0.78;90.28
11808;BME280;5961;42.640;23.380;2023-01-31T06:33:08;93719.19;;;0.81;90.17
11808;BME280;5961;42.640;23.380;2023-01-31T06:35:35;93718.66;;;0.79;90.60
11808;BME280;5961;42.640;23.380;2023-01-31T06:38:03;93701.06;;;0.85;90.59
11808;BME280;5961;42.640;23.380;2023-01-31T06:40:30;93695.81;;;0.66;90.43
11808;BME280;5961;42.640;23.380;2023-01-31T06:42:57;93694.84;;;0.81;90.44
11808;BME280;5961;42.640;23.380;2023-01-31T06:45:24;93714.66;;;0.87;90.57
11808;BME280;5961;42.640;23.380;2023-01-31T06:47:51;93714.75;;;0.77;90.69
11808;BME280;5961;42.640;23.380;2023-01-31T06:50:17;93760.50;;;0.79;90.79
11808;BME280;5961;42.640;23.380;2023-01-31T06:52:44;93693.56;;;0.54;90.70
11808;BME280;5961;42.640;23.380;2023-01-31T06:55:13;93729.84;;;0.85;90.81
11808;BME280;5961;42.640;23.380;2023-01-31T06:57:49;93735.59;;;0.87;90.94
11808;BME280;5961;42.640;23.380;2023-01-31T07:00:17;93738.19;;;0.87;91.04
11808;BME280;5961;42.640;23.380;2023-01-31T07:02:44;93737.97;;;0.83;91.55
11808;BME280;5961;42.640;23.380;2023-01-31T07:05:11;93708.66;;;0.63;91.30
11808;BME280;5961;42.640;23.380;2023-01-31T07:07:38;93737.13;;;0.88;91.69
11808;BME280;5961;42.640;23.380;2023-01-31T07:10:06;93733.94;;;0.91;91.45
11808;BME280;5961;42.640;23.380;2023-01-31T07:12:34;93724.81;;;0.88;91.32
11808;BME280;5961;42.640;23.380;2023-01-31T07:15:01;93767.47;;;0.89;91.04
11808;BME280;5961;42.640;23.380;2023-01-31T07:17:28;93737.66;;;0.90;90.80
11808;BME280;5961;42.640;23.380;2023-01-31T07:19:55;93731.88;;;0.88;90.51
11808;BME280;5961;42.640;23.380;2023-01-31T07:22:21;93748.53;;;0.97;90.06
11808;BME280;5961;42.640;23.380;2023-01-31T07:24:48;93744.88;;;0.98;90.15
11808;BME280;5961;42.640;23.380;2023-01-31T07:27:15;93745.34;;;1.00;90.00
11808;BME280;5961;42.640;23.380;2023-01-31T07:29:43;93729.97;;;0.98;89.91
11808;BME280;5961;42.640;23.380;2023-01-31T07:32:10;93692.28;;;0.76;89.89
11808;BME280;5961;42.640;23.380;2023-01-31T07:34:37;93723.81;;;1.08;90.51
11808;BME280;5961;42.640;23.380;2023-01-31T07:37:04;93759.91;;;1.11;90.36
11808;BME280;5961;42.640;23.380;2023-01-31T07:39:31;93766.69;;;1.12;90.47
11808;BME280;5961;42.640;23.380;2023-01-31T07:41:57;93736.34;;;1.11;90.40
11808;BME280;5961;42.640;23.380;2023-01-31T07:44:24;93754.09;;;1.14;91.11
11808;BME280;5961;42.640;23.380;2023-01-31T07:46:52;93743.63;;;1.14;91.33
11808;BME280;5961;42.640;23.380;2023-01-31T07:49:20;93748.31;;;1.17;91.33
11808;BME280;5961;42.640;23.380;2023-01-31T07:51:47;93739.38;;;1.18;91.32
11808;BME280;5961;42.640;23.380;2023-01-31T07:54:14;93753.25;;;1.19;91.23
11808;BME280;5961;42.640;23.380;2023-01-31T07:56:41;93731.25;;;1.20;91.56
11808;BME280;5961;42.640;23.380;2023-01-31T07:59:07;93719.53;;;1.17;92.93
11808;BME280;5961;42.640;23.380;2023-01-31T08:01:34;93760.50;;;1.27;92.20
11808;BME280;5961;42.640;23.380;2023-01-31T08:04:19;93741.97;;;1.23;91.70
11808;BME280;5961;42.640;23.380;2023-01-31T08:06:46;93748.41;;;1.31;91.68
11808;BME280;5961;42.640;23.380;2023-01-31T08:09:14;93722.00;;;1.27;91.80
11808;BME280;5961;42.640;23.380;2023-01-31T08:11:41;93742.03;;;1.37;92.22
11808;BME280;5961;42.640;23.380;2023-01-31T08:14:08;93737.59;;;1.37;92.15
11808;BME280;5961;42.640;23.380;2023-01-31T08:16:35;93754.84;;;1.38;92.20
11808;BME280;5961;42.640;23.380;2023-01-31T08:19:02;93715.78;;;1.23;92.38
11808;BME280;5961;42.640;23.380;2023-01-31T08:21:30;93716.72;;;1.32;92.23
11808;BME280;5961;42.640;23.380;2023-01-31T08:23:57;93687.03;;;1.18;92.20
11808;BME280;5961;42.640;23.380;2023-01-31T08:26:23;93707.84;;;1.28;91.81
11808;BME280;5961;42.640;23.380;2023-01-31T08:28:51;93739.38;;;1.42;91.83
11808;BME280;5961;42.640;23.380;2023-01-31T08:31:20;93736.38;;;1.48;91.81
11808;BME280;5961;42.640;23.380;2023-01-31T08:33:48;93765.19;;;1.48;91.49
11808;BME280;5961;42.640;23.380;2023-01-31T08:36:18;93724.84;;;1.49;90.98
11808;BME280;5961;42.640;23.380;2023-01-31T08:38:47;93718.25;;;1.52;90.85
11808;BME280;5961;42.640;23.380;2023-01-31T08:41:15;93742.84;;;1.56;90.97
11808;BME280;5961;42.640;23.380;2023-01-31T08:43:43;93714.72;;;1.61;89.81
11808;BME280;5961;42.640;23.380;2023-01-31T08:46:09;93717.25;;;1.66;90.29
11808;BME280;5961;42.640;23.380;2023-01-31T08:48:37;93737.16;;;1.67;89.86
11808;BME280;5961;42.640;23.380;2023-01-31T08:51:07;93728.88;;;1.60;89.83
11808;BME280;5961;42.640;23.380;2023-01-31T08:53:36;93746.06;;;1.66;90.17
11808;BME280;5961;42.640;23.380;2023-01-31T08:56:06;93723.03;;;1.69;90.30
11808;BME280;5961;42.640;23.380;2023-01-31T08:58:34;93747.16;;;1.65;89.98
11808;BME280;5961;42.640;23.380;2023-01-31T09:01:02;93741.34;;;1.69;90.38
11808;BME280;5961;42.640;23.380;2023-01-31T09:03:29;93724.78;;;1.73;89.71
11808;BME280;5961;42.640;23.380;2023-01-31T09:05:57;93739.13;;;1.76;89.46
11808;BME280;5961;42.640;23.380;2023-01-31T09:08:25;93725.56;;;1.74;89.68
11808;BME280;5961;42.640;23.380;2023-01-31T09:10:52;93732.00;;;1.81;89.47
11808;BME280;5961;42.640;23.380;2023-01-31T09:13:21;93754.72;;;1.86;88.83
11808;BME280;5961;42.640;23.380;2023-01-31T09:15:57;93737.03;;;1.96;88.26
11808;BME280;5961;42.640;23.380;2023-01-31T09:18:23;93724.03;;;2.05;87.98
11808;BME280;5961;42.640;23.380;2023-01-31T09:20:50;93741.25;;;2.11;86.49
11808;BME280;5961;42.640;23.380;2023-01-31T09:23:17;93657.59;;;1.63;86.10
11808;BME280;5961;42.640;23.380;2023-01-31T09:25:51;93726.09;;;2.08;86.04
11808;BME280;5961;42.640;23.380;2023-01-31T09:28:17;93719.69;;;2.14;85.84
11808;BME280;5961;42.640;23.380;2023-01-31T09:30:46;93718.28;;;2.03;85.21
11808;BME280;5961;42.640;23.380;2023-01-31T09:33:13;93736.97;;;2.15;85.31
11808;BME280;5961;42.640;23.380;2023-01-31T09:35:40;93705.84;;;1.95;85.75
11808;BME280;5961;42.640;23.380;2023-01-31T09:38:06;93736.00;;;2.11;84.89
11808;BME280;5961;42.640;23.380;2023-01-31T09:40:36;93704.75;;;2.14;85.40
11808;BME280;5961;42.640;23.380;2023-01-31T09:43:04;93737.06;;;2.10;85.50
11808;BME280;5961;42.640;23.380;2023-01-31T09:45:34;93750.66;;;2.12;85.39
11808;BME280;5961;42.640;23.380;2023-01-31T09:48:05;93707.22;;;2.06;85.10
11808;BME280;5961;42.640;23.380;2023-01-31T09:50:34;93682.00;;;1.78;84.63
11808;BME280;5961;42.640;23.380;2023-01-31T09:53:02;93703.47;;;2.12;84.82
11808;BME280;5961;42.640;23.380;2023-01-31T09:55:35;93695.22;;;2.18;84.69
11808;BME280;5961;42.640;23.380;2023-01-31T09:58:16;93693.28;;;2.24;84.91
11808;BME280;5961;42.640;23.380;2023-01-31T10:00:53;93708.53;;;2.22;84.30
11808;BME280;5961;42.640;23.380;2023-01-31T10:03:47;93683.00;;;2.28;84.12
11808;BME280;5961;42.640;23.380;2023-01-31T10:06:20;93667.81;;;1.97;84.29
11808;BME280;5961;42.640;23.380;2023-01-31T10:08:54;93695.44;;;2.22;84.33
11808;BME280;5961;42.640;23.380;2023-01-31T10:11:29;93735.19;;;2.29;84.83
11808;BME280;5961;42.640;23.380;2023-01-31T10:13:59;93694.50;;;2.32;85.00
11808;BME280;5961;42.640;23.380;2023-01-31T10:16:30;93718.78;;;2.37;85.05
11808;BME280;5961;42.640;23.380;2023-01-31T10:19:05;93621.19;;;1.81;84.58
11808;BME280;5961;42.640;23.380;2023-01-31T10:21:37;93668.75;;;2.20;85.70
11808;BME280;5961;42.640;23.380;2023-01-31T10:24:11;93628.59;;;2.06;85.46
11808;BME280;5961;42.640;23.380;2023-01-31T10:26:41;93704.03;;;2.41;84.99
11808;BME280;5961;42.640;23.380;2023-01-31T10:29:14;93690.91;;;2.41;84.38
11808;BME280;5961;42.640;23.380;2023-01-31T10:31:45;93723.06;;;2.47;82.52
11808;BME280;5961;42.640;23.380;2023-01-31T10:34:20;93689.25;;;2.45;82.87
11808;BME280;5961;42.640;23.380;2023-01-31T10:36:51;93678.56;;;2.28;81.96
11808;BME280;5961;42.640;23.380;2023-01-31T10:39:22;93682.66;;;2.34;82.35
11808;BME280;5961;42.640;23.380;2023-01-31T10:42:07;93669.56;;;2.48;81.56
11808;BME280;5961;42.640;23.380;2023-01-31T10:44:43;93677.22;;;2.44;81.43
11808;BME280;5961;42.640;23.380;2023-01-31T10:47:13;93716.84;;;2.43;82.09
11808;BME280;5961;42.640;23.380;2023-01-31T10:49:43;93697.63;;;2.47;81.76
11808;BME280;5961;42.640;23.380;2023-01-31T10:52:18;93670.25;;;2.53;83.23
11808;BME280;5961;42.640;23.380;2023-01-31T10:55:01;93726.00;;;2.59;82.69
11808;BME280;5961;42.640;23.380;2023-01-31T10:57:30;93679.06;;;2.57;81.86
11808;BME280;5961;42.640;23.380;2023-01-31T10:59:57;93681.69;;;2.57;82.83
11808;BME280;5961;42.640;23.380;2023-01-31T11:02:26;93711.06;;;2.59;83.19
11808;BME280;5961;42.640;23.380;2023-01-31T11:04:56;93687.63;;;2.49;82.89
11808;BME280;5961;42.640;23.380;2023-01-31T11:07:23;93698.09;;;2.49;82.65
11808;BME280;5961;42.640;23.380;2023-01-31T11:09:52;93690.53;;;2.48;83.79
11808;BME280;5961;42.640;23.380;2023-01-31T11:12:20;93681.59;;;2.35;84.51
11808;BME280;5961;42.640;23.380;2023-01-31T11:15:04;93682.66;;;2.34;84.67
11808;BME280;5961;42.640;23.380;2023-01-31T11:17:35;93682.66;;;2.34;84.98
11808;BME280;5961;42.640;23.380;2023-01-31T11:20:04;93701.00;;;2.34;85.16
11808;BME280;5961;42.640;23.380;2023-01-31T11:22:33;93674.47;;;2.22;85.09
11808;BME280;5961;42.640;23.380;2023-01-31T11:25:03;93687.78;;;2.26;85.61
11808;BME280;5961;42.640;23.380;2023-01-31T11:27:34;93659.56;;;2.04;85.95
11808;BME280;5961;42.640;23.380;2023-01-31T11:30:04;93713.22;;;2.25;86.31
11808;BME280;5961;42.640;23.380;2023-01-31T11:32:35;93604.06;;;1.70;87.00
11808;BME280;5961;42.640;23.380;2023-01-31T11:35:05;93629.44;;;1.55;87.50
11808;BME280;5961;42.640;23.380;2023-01-31T11:37:33;93681.59;;;2.03;88.23
11808;BME280;5961;42.640;23.380;2023-01-31T11:40:01;93669.78;;;2.05;89.10
11808;BME280;5961;42.640;23.380;2023-01-31T11:42:29;93683.16;;;2.04;89.66
11808;BME280;5961;42.640;23.380;2023-01-31T11:44:58;93692.50;;;2.10;89.43
11808;BME280;5961;42.640;23.380;2023-01-31T11:47:31;93683.94;;;2.04;90.01
11808;BME280;5961;42.640;23.380;2023-01-31T11:50:00;93651.13;;;2.07;90.51
11808;BME280;5961;42.640;23.380;2023-01-31T11:52:30;93666.22;;;1.83;90.80
11808;BME280;5961;42.640;23.380;2023-01-31T11:55:00;93685.63;;;2.14;91.55
11808;BME280;5961;42.640;23.380;2023-01-31T11:57:30;93684.72;;;2.05;92.35
11808;BME280;5961;42.640;23.380;2023-01-31T11:59:59;93663.34;;;1.98;92.08
11808;BME280;5961;42.640;23.380;2023-01-31T12:02:33;93699.94;;;2.03;92.91
11808;BME280;5961;42.640;23.380;2023-01-31T12:05:07;93669.63;;;1.97;93.57
11808;BME280;5961;42.640;23.380;2023-01-31T12:07:44;93673.66;;;1.76;94.56
11808;BME280;5961;42.640;23.380;2023-01-31T12:10:27;93686.59;;;1.86;94.68
11808;BME280;5961;42.640;23.380;2023-01-31T12:12:57;93677.13;;;1.71;93.29
11808;BME280;5961;42.640;23.380;2023-01-31T12:15:24;93693.75;;;1.80;94.17
11808;BME280;5961;42.640;23.380;2023-01-31T12:17:52;93659.00;;;1.75;94.27
11808;BME280;5961;42.640;23.380;2023-01-31T12:20:27;93663.88;;;1.81;94.44
11808;BME280;5961;42.640;23.380;2023-01-31T12:23:09;93665.88;;;1.52;94.46
11808;BME280;5961;42.640;23.380;2023-01-31T12:25:53;93691.00;;;1.72;93.96
11808;BME280;5961;42.640;23.380;2023-01-31T12:28:34;93692.72;;;1.62;93.55
11808;BME280;5961;42.640;23.380;2023-01-31T12:31:11;93682.59;;;1.75;93.21
11808;BME280;5961;42.640;23.380;2023-01-31T12:33:58;93682.06;;;1.73;92.45
11808;BME280;5961;42.640;23.380;2023-01-31T12:36:41;93685.22;;;1.75;92.29
11808;BME280;5961;42.640;23.380;2023-01-31T12:39:31;93678.72;;;1.53;92.19
11808;BME280;5961;42.640;23.380;2023-01-31T12:42:15;93669.41;;;1.80;91.88
11808;BME280;5961;42.640;23.380;2023-01-31T12:44:50;93709.47;;;1.80;92.07
11808;BME280;5961;42.640;23.380;2023-01-31T12:47:51;93658.34;;;1.83;91.97
11808;BME280;5961;42.640;23.380;2023-01-31T12:50:29;93697.84;;;1.86;91.46
11808;BME280;5961;42.640;23.380;2023-01-31T12:53:24;93677.69;;;1.87;91.52
11808;BME280;5961;42.640;23.380;2023-01-31T12:56:05;93648.81;;;1.54;91.95
11808;BME280;5961;42.640;23.380;2023-01-31T12:58:45;93692.97;;;1.80;91.94
11808;BME280;5961;42.640;23.380;2023-01-31T13:01:20;93704.28;;;1.94;91.53
11808;BME280;5961;42.640;23.380;2023-01-31T13:04:11;93696.41;;;1.94;91.76
11808;BME280;5961;42.640;23.380;2023-01-31T13:06:45;93700.38;;;1.91;93.81
11808;BME280;5961;42.640;23.380;2023-01-31T13:09:20;93701.75;;;1.89;95.49
11808;BME280;5961;42.640;23.380;2023-01-31T13:11:54;93702.41;;;1.81;98.27
11808;BME280;5961;42.640;23.380;2023-01-31T13:14:24;93714.81;;;1.75;97.81
11808;BME280;5961;42.640;23.380;2023-01-31T13:16:54;93690.44;;;1.75;97.22
11808;BME280;5961;42.640;23.380;2023-01-31T13:19:28;93679.31;;;1.64;95.92
11808;BME280;5961;42.640;23.380;2023-01-31T13:22:01;93697.53;;;1.74;94.64
11808;BME280;5961;42.640;23.380;2023-01-31T13:24:35;93711.09;;;1.76;93.56
11808;BME280;5961;42.640;23.380;2023-01-31T13:27:09;93676.59;;;1.55;92.59
11808;BME280;5961;42.640;23.380;2023-01-31T13:29:42;93694.69;;;1.71;92.46
11808;BME280;5961;42.640;23.380;2023-01-31T13:32:14;93696.25;;;1.72;93.07